sensor_id;sensor_type;location;lat;lon;timestamp;P1;durP1;ratioP1;P2;durP2;ratioP2
72590;SDS011;60625;51.212;5.952;2023-08-21T00:02:08;6.60;;;1.70;;
72590;SDS011;60625;51.212;5.952;2023-08-21T00:07:09;5.00;;;1.30;;
72590;SDS011;60625;51.212;5.952;2023-08-21T00:12:11;7.10;;;1.20;;
72590;SDS011;60625;51.212;5.952;2023-08-21T00:17:12;6.10;;;1.60;;
72590;SDS011;60625;51.212;5.952;2023-08-21T00:22:12;6.00;;;1.70;;
72590;SDS011;60625;51.212;5.952;2023-08-21T00:27:13;5.90;;;1.60;;
72590;SDS011;60625;51.212;5.952;2023-08-21T00:32:13;6.00;;;1.60;;
72590;SDS011;60625;51.212;5.952;2023-08-21T00:37:13;7.50;;;1.60;;
72590;SDS011;60625;51.212;5.952;2023-08-21T00:42:14;3.90;;;1.30;;
72590;SDS011;60625;51.212;5.952;2023-08-21T00:47:16;7.50;;;1.30;;
72590;SDS011;60625;51.212;5.952;2023-08-21T00:52:17;6.40;;;1.40;;
72590;SDS011;60625;51.212;5.952;2023-08-21T00:57:20;6.40;;;1.30;;
72590;SDS011;60625;51.212;5.952;2023-08-21T01:02:21;6.50;;;1.20;;
72590;SDS011;60625;51.212;5.952;2023-08-21T01:07:21;7.30;;;1.40;;
72590;SDS011;60625;51.212;5.952;2023-08-21T01:12:37;7.40;;;1.60;;
72590;SDS011;60625;51.212;5.952;2023-08-21T01:17:46;5.80;;;1.30;;
72590;SDS011;60625;51.212;5.952;2023-08-21T01:22:47;5.70;;;0.80;;
72590;SDS011;60625;51.212;5.952;2023-08-21T01:27:49;7.80;;;1.40;;
72590;SDS011;60625;51.212;5.952;2023-08-21T01:33:05;8.00;;;1.40;;
72590;SDS011;60625;51.212;5.952;2023-08-21T01:38:07;6.20;;;1.40;;
72590;SDS011;60625;51.212;5.952;2023-08-21T01:43:08;4.90;;;1.60;;
72590;SDS011;60625;51.212;5.952;2023-08-21T01:48:08;8.20;;;1.40;;
72590;SDS011;60625;51.212;5.952;2023-08-21T01:53:10;6.90;;;1.40;;
72590;SDS011;60625;51.212;5.952;2023-08-21T01:58:10;7.40;;;1.50;;
72590;SDS011;60625;51.212;5.952;2023-08-21T02:03:13;5.10;;;1.20;;
72590;SDS011;60625;51.212;5.952;2023-08-21T02:08:14;5.60;;;1.40;;
72590;SDS011;60625;51.212;5.952;2023-08-21T02:13:15;7.00;;;1.10;;
72590;SDS011;60625;51.212;5.952;2023-08-21T02:18:16;10.50;;;1.70;;
72590;SDS011;60625;51.212;5.952;2023-08-21T02:23:16;6.00;;;1.10;;
72590;SDS011;60625;51.212;5.952;2023-08-21T02:28:17;6.40;;;1.40;;
72590;SDS011;60625;51.212;5.952;2023-08-21T02:33:17;4.90;;;1.10;;
72590;SDS011;60625;51.212;5.952;2023-08-21T02:38:18;6.30;;;1.40;;
72590;SDS011;60625;51.212;5.952;2023-08-21T02:43:19;6.40;;;1.20;;
72590;SDS011;60625;51.212;5.952;2023-08-21T02:48:19;8.00;;;1.60;;
72590;SDS011;60625;51.212;5.952;2023-08-21T02:53:20;4.60;;;1.40;;
72590;SDS011;60625;51.212;5.952;2023-08-21T02:58:20;8.60;;;1.20;;
72590;SDS011;60625;51.212;5.952;2023-08-21T03:03:21;3.90;;;1.00;;
72590;SDS011;60625;51.212;5.952;2023-08-21T03:08:21;5.70;;;1.40;;
72590;SDS011;60625;51.212;5.952;2023-08-21T03:13:22;7.70;;;1.30;;
72590;SDS011;60625;51.212;5.952;2023-08-21T03:18:23;6.90;;;1.20;;
72590;SDS011;60625;51.212;5.952;2023-08-21T03:23:23;8.60;;;1.50;;
72590;SDS011;60625;51.212;5.952;2023-08-21T03:28:24;7.90;;;1.70;;
72590;SDS011;60625;51.212;5.952;2023-08-21T03:33:24;7.40;;;1.20;;
72590;SDS011;60625;51.212;5.952;2023-08-21T03:38:25;8.90;;;1.70;;
72590;SDS011;60625;51.212;5.952;2023-08-21T03:43:26;7.40;;;1.80;;
72590;SDS011;60625;51.212;5.952;2023-08-21T03:48:27;7.30;;;1.60;;
72590;SDS011;60625;51.212;5.952;2023-08-21T03:53:27;6.90;;;1.30;;
72590;SDS011;60625;51.212;5.952;2023-08-21T03:58:27;8.70;;;1.50;;
72590;SDS011;60625;51.212;5.952;2023-08-21T04:03:28;6.70;;;1.40;;
72590;SDS011;60625;51.212;5.952;2023-08-21T04:08:29;7.00;;;1.40;;
72590;SDS011;60625;51.212;5.952;2023-08-21T04:13:30;8.10;;;1.80;;
72590;SDS011;60625;51.212;5.952;2023-08-21T04:18:30;6.70;;;1.50;;
72590;SDS011;60625;51.212;5.952;2023-08-21T04:23:30;4.90;;;1.10;;
72590;SDS011;60625;51.212;5.952;2023-08-21T04:28:32;8.50;;;1.70;;
72590;SDS011;60625;51.212;5.952;2023-08-21T04:33:34;4.50;;;1.30;;
72590;SDS011;60625;51.212;5.952;2023-08-21T04:38:36;8.10;;;1.40;;
72590;SDS011;60625;51.212;5.952;2023-08-21T04:43:37;5.20;;;1.30;;
72590;SDS011;60625;51.212;5.952;2023-08-21T04:48:38;8.70;;;1.70;;
72590;SDS011;60625;51.212;5.952;2023-08-21T04:53:39;10.60;;;1.60;;
72590;SDS011;60625;51.212;5.952;2023-08-21T04:58:43;7.00;;;1.70;;
72590;SDS011;60625;51.212;5.952;2023-08-21T05:03:44;7.10;;;1.70;;
72590;SDS011;60625;51.212;5.952;2023-08-21T05:08:45;10.20;;;2.00;;
72590;SDS011;60625;51.212;5.952;2023-08-21T05:13:46;8.40;;;2.10;;
72590;SDS011;60625;51.212;5.952;2023-08-21T05:18:48;7.00;;;1.80;;
72590;SDS011;60625;51.212;5.952;2023-08-21T05:23:49;7.00;;;2.40;;
72590;SDS011;60625;51.212;5.952;2023-08-21T05:28:50;4.90;;;1.80;;
72590;SDS011;60625;51.212;5.952;2023-08-21T05:33:50;5.70;;;2.00;;
72590;SDS011;60625;51.212;5.952;2023-08-21T05:38:50;14.80;;;2.10;;
72590;SDS011;60625;51.212;5.952;2023-08-21T05:43:52;8.40;;;2.30;;
72590;SDS011;60625;51.212;5.952;2023-08-21T05:48:57;6.50;;;2.00;;
72590;SDS011;60625;51.212;5.952;2023-08-21T05:53:57;6.70;;;2.30;;
72590;SDS011;60625;51.212;5.952;2023-08-21T05:58:57;7.70;;;2.30;;
72590;SDS011;60625;51.212;5.952;2023-08-21T06:03:59;8.30;;;2.50;;
72590;SDS011;60625;51.212;5.952;2023-08-21T06:09:17;12.80;;;2.30;;
72590;SDS011;60625;51.212;5.952;2023-08-21T06:14:18;7.70;;;2.50;;
72590;SDS011;60625;51.212;5.952;2023-08-21T06:19:19;10.70;;;2.40;;
72590;SDS011;60625;51.212;5.952;2023-08-21T06:24:19;9.20;;;2.30;;
72590;SDS011;60625;51.212;5.952;2023-08-21T06:29:20;7.40;;;2.10;;
72590;SDS011;60625;51.212;5.952;2023-08-21T06:34:23;9.80;;;2.50;;
72590;SDS011;60625;51.212;5.952;2023-08-21T06:39:25;6.90;;;1.70;;
72590;SDS011;60625;51.212;5.952;2023-08-21T06:44:26;9.80;;;3.00;;
72590;SDS011;60625;51.212;5.952;2023-08-21T06:49:27;8.40;;;2.30;;
72590;SDS011;60625;51.212;5.952;2023-08-21T06:54:27;11.50;;;2.60;;
72590;SDS011;60625;51.212;5.952;2023-08-21T06:59:28;8.80;;;1.90;;
72590;SDS011;60625;51.212;5.952;2023-08-21T07:04:28;10.60;;;2.80;;
72590;SDS011;60625;51.212;5.952;2023-08-21T07:09:28;11.40;;;2.10;;
72590;SDS011;60625;51.212;5.952;2023-08-21T07:14:29;5.50;;;1.80;;
72590;SDS011;60625;51.212;5.952;2023-08-21T07:19:30;6.00;;;2.20;;
72590;SDS011;60625;51.212;5.952;2023-08-21T07:24:30;8.40;;;1.90;;
72590;SDS011;60625;51.212;5.952;2023-08-21T07:29:31;8.10;;;2.10;;
72590;SDS011;60625;51.212;5.952;2023-08-21T07:34:31;9.70;;;1.80;;
72590;SDS011;60625;51.212;5.952;2023-08-21T07:39:32;5.30;;;1.40;;
72590;SDS011;60625;51.212;5.952;2023-08-21T07:44:32;7.90;;;1.20;;
72590;SDS011;60625;51.212;5.952;2023-08-21T07:49:33;5.00;;;1.40;;
72590;SDS011;60625;51.212;5.952;2023-08-21T07:54:33;7.30;;;1.60;;
72590;SDS011;60625;51.212;5.952;2023-08-21T07:59:34;7.40;;;1.40;;
72590;SDS011;60625;51.212;5.952;2023-08-21T08:04:34;5.70;;;1.20;;
72590;SDS011;60625;51.212;5.952;2023-08-21T08:09:34;5.40;;;1.00;;
72590;SDS011;60625;51.212;5.952;2023-08-21T08:14:36;5.70;;;0.90;;
72590;SDS011;60625;51.212;5.952;2023-08-21T08:19:36;8.00;;;1.60;;
72590;SDS011;60625;51.212;5.952;2023-08-21T08:24:37;4.80;;;1.40;;
72590;SDS011;60625;51.212;5.952;2023-08-21T08:29:37;6.00;;;1.10;;
72590;SDS011;60625;51.212;5.952;2023-08-21T08:34:38;8.10;;;1.50;;
72590;SDS011;60625;51.212;5.952;2023-08-21T08:39:38;5.40;;;1.50;;
72590;SDS011;60625;51.212;5.952;2023-08-21T08:44:39;6.50;;;1.60;;
72590;SDS011;60625;51.212;5.952;2023-08-21T08:49:41;9.90;;;2.20;;
72590;SDS011;60625;51.212;5.952;2023-08-21T08:54:41;10.90;;;1.50;;
72590;SDS011;60625;51.212;5.952;2023-08-21T08:59:42;7.30;;;2.70;;
72590;SDS011;60625;51.212;5.952;2023-08-21T09:04:42;7.60;;;2.80;;
72590;SDS011;60625;51.212;5.952;2023-08-21T09:09:47;11.50;;;3.20;;
72590;SDS011;60625;51.212;5.952;2023-08-21T09:14:53;15.90;;;3.20;;
72590;SDS011;60625;51.212;5.952;2023-08-21T09:19:53;10.50;;;3.20;;
72590;SDS011;60625;51.212;5.952;2023-08-21T09:25:03;8.00;;;2.60;;
72590;SDS011;60625;51.212;5.952;2023-08-21T09:30:11;9.70;;;2.30;;
72590;SDS011;60625;51.212;5.952;2023-08-21T09:35:16;6.20;;;2.00;;
72590;SDS011;60625;51.212;5.952;2023-08-21T09:40:17;9.10;;;2.00;;
72590;SDS011;60625;51.212;5.952;2023-08-21T09:45:21;6.70;;;1.20;;
72590;SDS011;60625;51.212;5.952;2023-08-21T09:50:22;5.50;;;1.70;;
72590;SDS011;60625;51.212;5.952;2023-08-21T09:55:23;7.60;;;2.00;;
72590;SDS011;60625;51.212;5.952;2023-08-21T10:00:35;7.40;;;1.90;;
72590;SDS011;60625;51.212;5.952;2023-08-21T10:05:39;8.50;;;1.80;;
72590;SDS011;60625;51.212;5.952;2023-08-21T10:10:39;7.00;;;1.80;;
72590;SDS011;60625;51.212;5.952;2023-08-21T10:15:41;10.00;;;2.00;;
72590;SDS011;60625;51.212;5.952;2023-08-21T10:20:43;7.20;;;1.70;;
72590;SDS011;60625;51.212;5.952;2023-08-21T10:25:44;7.00;;;2.20;;
72590;SDS011;60625;51.212;5.952;2023-08-21T10:30:44;7.40;;;1.90;;
72590;SDS011;60625;51.212;5.952;2023-08-21T10:35:45;7.10;;;1.40;;
72590;SDS011;60625;51.212;5.952;2023-08-21T10:41:07;6.30;;;1.90;;
72590;SDS011;60625;51.212;5.952;2023-08-21T10:46:11;5.10;;;1.20;;
72590;SDS011;60625;51.212;5.952;2023-08-21T10:51:12;7.90;;;1.90;;
72590;SDS011;60625;51.212;5.952;2023-08-21T10:56:13;6.20;;;1.80;;
72590;SDS011;60625;51.212;5.952;2023-08-21T11:01:14;7.90;;;1.80;;
72590;SDS011;60625;51.212;5.952;2023-08-21T11:06:18;5.30;;;1.10;;
72590;SDS011;60625;51.212;5.952;2023-08-21T11:11:19;6.50;;;1.60;;
72590;SDS011;60625;51.212;5.952;2023-08-21T11:16:19;8.30;;;1.90;;
72590;SDS011;60625;51.212;5.952;2023-08-21T11:21:23;10.00;;;2.50;;
72590;SDS011;60625;51.212;5.952;2023-08-21T11:26:25;7.20;;;1.40;;
72590;SDS011;60625;51.212;5.952;2023-08-21T11:31:27;5.60;;;1.60;;
72590;SDS011;60625;51.212;5.952;2023-08-21T11:36:27;7.30;;;1.20;;
72590;SDS011;60625;51.212;5.952;2023-08-21T11:41:28;5.20;;;1.30;;
72590;SDS011;60625;51.212;5.952;2023-08-21T11:46:29;8.40;;;1.80;;
72590;SDS011;60625;51.212;5.952;2023-08-21T11:51:37;6.90;;;1.30;;
72590;SDS011;60625;51.212;5.952;2023-08-21T11:56:39;6.10;;;1.80;;
72590;SDS011;60625;51.212;5.952;2023-08-21T12:01:42;7.30;;;1.20;;
72590;SDS011;60625;51.212;5.952;2023-08-21T12:06:44;5.90;;;1.80;;
72590;SDS011;60625;51.212;5.952;2023-08-21T12:11:45;9.50;;;1.80;;
72590;SDS011;60625;51.212;5.952;2023-08-21T12:16:46;6.80;;;1.50;;
72590;SDS011;60625;51.212;5.952;2023-08-21T12:21:46;7.50;;;1.80;;
72590;SDS011;60625;51.212;5.952;2023-08-21T12:26:47;10.30;;;1.90;;
72590;SDS011;60625;51.212;5.952;2023-08-21T12:31:47;7.50;;;1.50;;
72590;SDS011;60625;51.212;5.952;2023-08-21T12:36:50;7.70;;;2.10;;
72590;SDS011;60625;51.212;5.952;2023-08-21T12:41:51;7.70;;;1.90;;
72590;SDS011;60625;51.212;5.952;2023-08-21T12:46:52;5.90;;;1.80;;
72590;SDS011;60625;51.212;5.952;2023-08-21T12:51:54;6.80;;;1.70;;
72590;SDS011;60625;51.212;5.952;2023-08-21T12:56:59;6.00;;;1.60;;
72590;SDS011;60625;51.212;5.952;2023-08-21T13:01:59;5.60;;;1.90;;
72590;SDS011;60625;51.212;5.952;2023-08-21T13:07:04;8.00;;;1.50;;
72590;SDS011;60625;51.212;5.952;2023-08-21T13:12:05;7.50;;;1.90;;
72590;SDS011;60625;51.212;5.952;2023-08-21T13:17:06;4.90;;;1.60;;
72590;SDS011;60625;51.212;5.952;2023-08-21T13:22:06;6.80;;;1.70;;
72590;SDS011;60625;51.212;5.952;2023-08-21T13:27:07;9.60;;;2.20;;
72590;SDS011;60625;51.212;5.952;2023-08-21T13:32:08;5.30;;;1.60;;
72590;SDS011;60625;51.212;5.952;2023-08-21T13:37:08;7.70;;;2.00;;
72590;SDS011;60625;51.212;5.952;2023-08-21T13:42:09;5.20;;;1.10;;
72590;SDS011;60625;51.212;5.952;2023-08-21T13:47:09;7.60;;;2.00;;
72590;SDS011;60625;51.212;5.952;2023-08-21T13:52:10;5.40;;;1.80;;
72590;SDS011;60625;51.212;5.952;2023-08-21T13:57:10;6.10;;;1.60;;
72590;SDS011;60625;51.212;5.952;2023-08-21T14:02:11;6.50;;;2.00;;
72590;SDS011;60625;51.212;5.952;2023-08-21T14:07:12;7.20;;;1.40;;
72590;SDS011;60625;51.212;5.952;2023-08-21T14:12:12;5.30;;;1.60;;
72590;SDS011;60625;51.212;5.952;2023-08-21T14:17:13;7.60;;;1.80;;
72590;SDS011;60625;51.212;5.952;2023-08-21T14:22:14;11.10;;;1.90;;
72590;SDS011;60625;51.212;5.952;2023-08-21T14:27:15;8.40;;;1.60;;
72590;SDS011;60625;51.212;5.952;2023-08-21T14:32:15;7.00;;;1.80;;
72590;SDS011;60625;51.212;5.952;2023-08-21T14:37:16;5.10;;;1.60;;
72590;SDS011;60625;51.212;5.952;2023-08-21T14:42:17;9.20;;;1.00;;
72590;SDS011;60625;51.212;5.952;2023-08-21T14:47:17;6.90;;;1.60;;
72590;SDS011;60625;51.212;5.952;2023-08-21T14:52:18;6.70;;;1.40;;
72590;SDS011;60625;51.212;5.952;2023-08-21T14:57:18;6.20;;;1.70;;
72590;SDS011;60625;51.212;5.952;2023-08-21T15:02:19;5.70;;;1.70;;
72590;SDS011;60625;51.212;5.952;2023-08-21T15:07:19;6.40;;;1.70;;
72590;SDS011;60625;51.212;5.952;2023-08-21T15:12:20;6.00;;;1.60;;
72590;SDS011;60625;51.212;5.952;2023-08-21T15:17:21;5.80;;;2.20;;
72590;SDS011;60625;51.212;5.952;2023-08-21T15:22:21;5.40;;;1.80;;
72590;SDS011;60625;51.212;5.952;2023-08-21T15:27:22;6.00;;;2.00;;
72590;SDS011;60625;51.212;5.952;2023-08-21T15:32:22;6.60;;;1.80;;
72590;SDS011;60625;51.212;5.952;2023-08-21T15:37:23;5.20;;;1.80;;
72590;SDS011;60625;51.212;5.952;2023-08-21T15:42:24;7.80;;;1.70;;
72590;SDS011;60625;51.212;5.952;2023-08-21T15:47:24;5.60;;;1.60;;
72590;SDS011;60625;51.212;5.952;2023-08-21T15:52:29;6.80;;;1.90;;
72590;SDS011;60625;51.212;5.952;2023-08-21T15:57:30;6.00;;;1.60;;
72590;SDS011;60625;51.212;5.952;2023-08-21T16:02:32;5.40;;;1.40;;
72590;SDS011;60625;51.212;5.952;2023-08-21T16:07:32;5.30;;;1.50;;
72590;SDS011;60625;51.212;5.952;2023-08-21T16:12:33;7.90;;;2.00;;
72590;SDS011;60625;51.212;5.952;2023-08-21T16:17:34;7.50;;;1.70;;
72590;SDS011;60625;51.212;5.952;2023-08-21T16:22:37;4.90;;;1.90;;
72590;SDS011;60625;51.212;5.952;2023-08-21T16:27:37;9.20;;;1.70;;
72590;SDS011;60625;51.212;5.952;2023-08-21T16:32:39;7.40;;;1.60;;
72590;SDS011;60625;51.212;5.952;2023-08-21T16:37:39;7.00;;;1.90;;
72590;SDS011;60625;51.212;5.952;2023-08-21T16:42:40;6.70;;;2.20;;
72590;SDS011;60625;51.212;5.952;2023-08-21T16:47:40;8.20;;;1.90;;
72590;SDS011;60625;51.212;5.952;2023-08-21T16:52:41;5.20;;;1.50;;
72590;SDS011;60625;51.212;5.952;2023-08-21T16:57:41;5.60;;;1.40;;
72590;SDS011;60625;51.212;5.952;2023-08-21T17:02:42;5.40;;;1.90;;
72590;SDS011;60625;51.212;5.952;2023-08-21T17:07:42;9.70;;;1.70;;
72590;SDS011;60625;51.212;5.952;2023-08-21T17:12:44;5.10;;;1.50;;
72590;SDS011;60625;51.212;5.952;2023-08-21T17:17:48;7.70;;;1.80;;
72590;SDS011;60625;51.212;5.952;2023-08-21T17:22:49;6.40;;;2.00;;
72590;SDS011;60625;51.212;5.952;2023-08-21T17:27:49;6.90;;;2.00;;
72590;SDS011;60625;51.212;5.952;2023-08-21T17:32:51;10.50;;;2.20;;
72590;SDS011;60625;51.212;5.952;2023-08-21T17:37:54;7.40;;;1.90;;
72590;SDS011;60625;51.212;5.952;2023-08-21T17:42:54;7.30;;;1.80;;
72590;SDS011;60625;51.212;5.952;2023-08-21T17:47:55;10.20;;;2.20;;
72590;SDS011;60625;51.212;5.952;2023-08-21T17:52:56;8.00;;;2.30;;
72590;SDS011;60625;51.212;5.952;2023-08-21T17:57:56;7.70;;;2.20;;
72590;SDS011;60625;51.212;5.952;2023-08-21T18:02:59;7.50;;;2.00;;
72590;SDS011;60625;51.212;5.952;2023-08-21T18:08:00;6.60;;;1.90;;
72590;SDS011;60625;51.212;5.952;2023-08-21T18:13:00;10.40;;;2.20;;
72590;SDS011;60625;51.212;5.952;2023-08-21T18:18:03;9.60;;;2.30;;
72590;SDS011;60625;51.212;5.952;2023-08-21T18:23:05;9.20;;;2.00;;
72590;SDS011;60625;51.212;5.952;2023-08-21T18:28:05;5.30;;;1.70;;
72590;SDS011;60625;51.212;5.952;2023-08-21T18:33:06;6.30;;;1.90;;
72590;SDS011;60625;51.212;5.952;2023-08-21T18:38:07;9.30;;;2.00;;
72590;SDS011;60625;51.212;5.952;2023-08-21T18:43:08;5.40;;;1.90;;
72590;SDS011;60625;51.212;5.952;2023-08-21T18:48:08;10.00;;;1.90;;
72590;SDS011;60625;51.212;5.952;2023-08-21T18:53:13;10.70;;;2.50;;
72590;SDS011;60625;51.212;5.952;2023-08-21T18:58:15;7.20;;;1.90;;
72590;SDS011;60625;51.212;5.952;2023-08-21T19:03:16;10.30;;;2.10;;
72590;SDS011;60625;51.212;5.952;2023-08-21T19:08:16;4.90;;;2.00;;
72590;SDS011;60625;51.212;5.952;2023-08-21T19:13:17;6.50;;;2.10;;
72590;SDS011;60625;51.212;5.952;2023-08-21T19:18:18;8.30;;;2.00;;
72590;SDS011;60625;51.212;5.952;2023-08-21T19:23:18;8.80;;;2.60;;
72590;SDS011;60625;51.212;5.952;2023-08-21T19:28:19;5.90;;;2.20;;
72590;SDS011;60625;51.212;5.952;2023-08-21T19:33:20;8.00;;;2.40;;
72590;SDS011;60625;51.212;5.952;2023-08-21T19:38:24;5.40;;;2.00;;
72590;SDS011;60625;51.212;5.952;2023-08-21T19:43:24;6.30;;;2.30;;
72590;SDS011;60625;51.212;5.952;2023-08-21T19:48:25;7.00;;;2.10;;
72590;SDS011;60625;51.212;5.952;2023-08-21T19:53:25;7.00;;;2.50;;
72590;SDS011;60625;51.212;5.952;2023-08-21T19:58:27;6.80;;;3.00;;
72590;SDS011;60625;51.212;5.952;2023-08-21T20:03:28;7.70;;;2.90;;
72590;SDS011;60625;51.212;5.952;2023-08-21T20:08:30;6.00;;;2.80;;
72590;SDS011;60625;51.212;5.952;2023-08-21T20:13:32;11.10;;;3.40;;
72590;SDS011;60625;51.212;5.952;2023-08-21T20:18:32;7.70;;;3.30;;
72590;SDS011;60625;51.212;5.952;2023-08-21T20:23:34;8.30;;;3.00;;
72590;SDS011;60625;51.212;5.952;2023-08-21T20:28:34;5.70;;;2.20;;
72590;SDS011;60625;51.212;5.952;2023-08-21T20:33:35;9.50;;;2.90;;
72590;SDS011;60625;51.212;5.952;2023-08-21T20:38:35;5.80;;;2.00;;
72590;SDS011;60625;51.212;5.952;2023-08-21T20:43:36;9.10;;;2.90;;
72590;SDS011;60625;51.212;5.952;2023-08-21T20:48:36;8.50;;;2.80;;
72590;SDS011;60625;51.212;5.952;2023-08-21T20:53:38;6.70;;;3.30;;
72590;SDS011;60625;51.212;5.952;2023-08-21T20:58:38;5.80;;;2.60;;
72590;SDS011;60625;51.212;5.952;2023-08-21T21:03:39;7.60;;;3.00;;
72590;SDS011;60625;51.212;5.952;2023-08-21T21:08:39;8.90;;;2.90;;
72590;SDS011;60625;51.212;5.952;2023-08-21T21:13:41;5.60;;;2.50;;
72590;SDS011;60625;51.212;5.952;2023-08-21T21:18:42;5.20;;;2.50;;
72590;SDS011;60625;51.212;5.952;2023-08-21T21:23:42;6.50;;;2.50;;
72590;SDS011;60625;51.212;5.952;2023-08-21T21:28:43;6.10;;;2.30;;
72590;SDS011;60625;51.212;5.952;2023-08-21T21:33:44;10.00;;;3.10;;
72590;SDS011;60625;51.212;5.952;2023-08-21T21:38:46;7.70;;;3.30;;
72590;SDS011;60625;51.212;5.952;2023-08-21T21:43:47;6.90;;;2.80;;
72590;SDS011;60625;51.212;5.952;2023-08-21T21:48:50;5.90;;;2.70;;
72590;SDS011;60625;51.212;5.952;2023-08-21T21:53:51;7.70;;;3.20;;
72590;SDS011;60625;51.212;5.952;2023-08-21T21:58:51;8.30;;;3.40;;
72590;SDS011;60625;51.212;5.952;2023-08-21T22:03:53;8.30;;;3.40;;
72590;SDS011;60625;51.212;5.952;2023-08-21T22:08:53;8.70;;;3.40;;
72590;SDS011;60625;51.212;5.952;2023-08-21T22:13:54;9.70;;;4.00;;
72590;SDS011;60625;51.212;5.952;2023-08-21T22:18:55;11.20;;;3.00;;
72590;SDS011;60625;51.212;5.952;2023-08-21T22:23:55;6.30;;;3.30;;
72590;SDS011;60625;51.212;5.952;2023-08-21T22:28:56;6.80;;;3.10;;
72590;SDS011;60625;51.212;5.952;2023-08-21T22:33:56;8.30;;;3.70;;
72590;SDS011;60625;51.212;5.952;2023-08-21T22:38:56;7.80;;;3.40;;
72590;SDS011;60625;51.212;5.952;2023-08-21T22:43:57;7.80;;;2.80;;
72590;SDS011;60625;51.212;5.952;2023-08-21T22:48:58;7.00;;;3.30;;
72590;SDS011;60625;51.212;5.952;2023-08-21T22:53:59;8.80;;;3.20;;
72590;SDS011;60625;51.212;5.952;2023-08-21T22:58:59;7.90;;;4.00;;
72590;SDS011;60625;51.212;5.952;2023-08-21T23:03:59;5.90;;;3.00;;
72590;SDS011;60625;51.212;5.952;2023-08-21T23:09:00;8.30;;;3.30;;
72590;SDS011;60625;51.212;5.952;2023-08-21T23:14:00;6.90;;;3.50;;
72590;SDS011;60625;51.212;5.952;2023-08-21T23:19:01;7.20;;;3.30;;
72590;SDS011;60625;51.212;5.952;2023-08-21T23:24:02;7.80;;;3.70;;
72590;SDS011;60625;51.212;5.952;2023-08-21T23:29:05;5.90;;;3.80;;
72590;SDS011;60625;51.212;5.952;2023-08-21T23:34:07;9.40;;;3.70;;
72590;SDS011;60625;51.212;5.952;2023-08-21T23:39:07;7.30;;;3.90;;
72590;SDS011;60625;51.212;5.952;2023-08-21T23:44:08;11.10;;;3.90;;
72590;SDS011;60625;51.212;5.952;2023-08-21T23:49:10;9.70;;;4.10;;
72590;SDS011;60625;51.212;5.952;2023-08-21T23:54:10;10.40;;;4.20;;
72590;SDS011;60625;51.212;5.952;2023-08-21T23:59:10;8.50;;;3.90;;
